メインページ
METAR-TAF:

METAR-TAF

空港 :

ヒューストン, テキサス州, アメリカ合衆国

ジョージ・ブッシュ・インターコンチネンタル空港

緯度: 29-59-33N, 経度: 095-21-50W, 海抜: 29m

現時点の気象観測

当レポートは41分前の21:53(UTC)に作成
南東の風 12kt
気温 32°C
湿度 56%
気圧 1017 hPa
視程: 16.1km
高度5000ftの雲はほとんどない
高度10000ftの雲は散在している
高度25000ftの千切れ雲あり

METAR: KIAH 262153Z 14012KT 10SM FEW050 SCT100 BKN250 32/22 A3003 RMK AO2 LTG DSNT NE AND W TSE15 SLP169 CB DSNT NE AND W MOV NW TCU DSNT SW T03220217

時間: 17:34 (22:34 UTC)

予報

当レポートは1時間13分前の21:21(UTC)に作成
予報は26日の 21時(UTC)から 27日の 24時(UTC)まで有効
南東の風 13kt
視程: 10km
高度5000ftの雲は散在している, 積乱雲.
高度10000ftの雲は散在している
高度25000ftの千切れ雲あり
近辺で激しい雷雨
27日の 0100時(UTC)から
南/南東の風 6kt
視程: 10km
高度3500ftの雲はほとんどない
高度25000ftの雲は散在している
27日の 1000時(UTC)から
変向風 3kt
視程: 10km
高度2000ftの雲は散在している
27日の 1600時(UTC)から
南/南西の風 5kt
視程: 10km
高度4000ftの雲は散在している

TAF: KIAH 262121Z 2621/2724 14013KT P6SM VCTS SCT050CB SCT100 BKN250 FM270100 15006KT P6SM FEW035 SCT250 FM271000 VRB03KT P6SM SCT020 FM271600 21005KT P6SM SCT040

4,000以上の空港の気象観測と天気予報(METAR報とTAF報)

利用可能な観測所は地図上に黄色い丸と赤い丸で示す。

丸の上にカーソルを重ねると観測所名を参照できる。

次にクリックすると気象観測と天気予報を参照できる。

マップの切り替え:黒色「×」印の緑ボタンをクリックして拡大、「-」印の緑ボタンをクリックして縮小、緑色の三角印をクリックして隣りの地図に切り替え


METAR-TAF: